Terminal Aerodrome Forecast
Issued by NWS

Home | Current Version | Previous Version | Text Only | Print | Product List | Glossary On
Versions: 1 2 3 4 5 6 7 8 9 10 11 12 13 14 15
918
FTUS43 KAPX 230520
TAFAPN
TAF
KAPN 230520Z 2306/2406 22006KT P6SM OVC035
     FM231300 23008KT P6SM OVC030
     FM231800 26011G20KT P6SM OVC025
     FM232100 27009KT P6SM BKN035
     FM232300 28008KT P6SM BKN070
     FM240000 27006KT P6SM SCT090=

USA.gov is the U.S. government's official web portal to all federal, state and local government web resources and services.